sensor_id;sensor_type;location;lat;lon;timestamp;P1;durP1;ratioP1;P2;durP2;ratioP2
11970;SDS011;6045;42.682;23.294;2023-04-05T00:02:09;3.97;;;1.77;;
11970;SDS011;6045;42.682;23.294;2023-04-05T00:04:39;2.60;;;2.13;;
11970;SDS011;6045;42.682;23.294;2023-04-05T00:07:14;2.23;;;2.13;;
11970;SDS011;6045;42.682;23.294;2023-04-05T00:09:41;2.83;;;2.03;;
11970;SDS011;6045;42.682;23.294;2023-04-05T00:12:08;3.17;;;2.43;;
11970;SDS011;6045;42.682;23.294;2023-04-05T00:14:35;2.20;;;2.00;;
11970;SDS011;6045;42.682;23.294;2023-04-05T00:17:01;4.37;;;2.67;;
11970;SDS011;6045;42.682;23.294;2023-04-05T00:19:28;3.90;;;2.73;;
11970;SDS011;6045;42.682;23.294;2023-04-05T00:21:59;4.13;;;2.60;;
11970;SDS011;6045;42.682;23.294;2023-04-05T00:24:26;1.70;;;1.60;;
11970;SDS011;6045;42.682;23.294;2023-04-05T00:26:53;6.23;;;1.87;;
11970;SDS011;6045;42.682;23.294;2023-04-05T00:29:20;1.33;;;1.23;;
11970;SDS011;6045;42.682;23.294;2023-04-05T00:31:47;2.80;;;1.97;;
11970;SDS011;6045;42.682;23.294;2023-04-05T00:34:14;4.27;;;1.47;;
11970;SDS011;6045;42.682;23.294;2023-04-05T00:36:41;2.07;;;1.87;;
11970;SDS011;6045;42.682;23.294;2023-04-05T00:39:09;2.23;;;1.37;;
11970;SDS011;6045;42.682;23.294;2023-04-05T00:41:36;4.57;;;1.20;;
11970;SDS011;6045;42.682;23.294;2023-04-05T00:44:02;2.47;;;0.83;;
11970;SDS011;6045;42.682;23.294;2023-04-05T00:46:32;0.93;;;0.93;;
11970;SDS011;6045;42.682;23.294;2023-04-05T00:49:00;1.83;;;1.30;;
11970;SDS011;6045;42.682;23.294;2023-04-05T00:51:27;3.93;;;2.10;;
11970;SDS011;6045;42.682;23.294;2023-04-05T00:53:56;1.53;;;1.10;;
11970;SDS011;6045;42.682;23.294;2023-04-05T00:56:24;3.27;;;1.77;;
11970;SDS011;6045;42.682;23.294;2023-04-05T00:58:52;1.63;;;1.53;;
11970;SDS011;6045;42.682;23.294;2023-04-05T01:01:19;2.30;;;1.50;;
11970;SDS011;6045;42.682;23.294;2023-04-05T01:03:50;2.33;;;1.47;;
11970;SDS011;6045;42.682;23.294;2023-04-05T01:06:25;0.60;;;0.37;;
11970;SDS011;6045;42.682;23.294;2023-04-05T01:09:14;2.00;;;1.30;;
11970;SDS011;6045;42.682;23.294;2023-04-05T01:11:51;2.30;;;1.13;;
11970;SDS011;6045;42.682;23.294;2023-04-05T01:14:22;0.70;;;0.70;;
11970;SDS011;6045;42.682;23.294;2023-04-05T01:16:48;1.60;;;1.50;;
11970;SDS011;6045;42.682;23.294;2023-04-05T01:19:22;1.20;;;0.67;;
11970;SDS011;6045;42.682;23.294;2023-04-05T01:25:08;1.30;;;0.93;;
11970;SDS011;6045;42.682;23.294;2023-04-05T01:28:00;0.90;;;0.90;;
11970;SDS011;6045;42.682;23.294;2023-04-05T01:30:47;0.77;;;0.70;;
11970;SDS011;6045;42.682;23.294;2023-04-05T01:33:19;1.27;;;1.17;;
11970;SDS011;6045;42.682;23.294;2023-04-05T01:35:52;1.00;;;0.87;;
11970;SDS011;6045;42.682;23.294;2023-04-05T01:38:25;1.43;;;1.40;;
11970;SDS011;6045;42.682;23.294;2023-04-05T01:40:53;0.87;;;0.87;;
11970;SDS011;6045;42.682;23.294;2023-04-05T01:43:20;1.33;;;1.23;;
11970;SDS011;6045;42.682;23.294;2023-04-05T01:45:48;1.10;;;1.10;;
11970;SDS011;6045;42.682;23.294;2023-04-05T01:48:15;2.00;;;1.37;;
11970;SDS011;6045;42.682;23.294;2023-04-05T01:50:42;1.43;;;1.33;;
11970;SDS011;6045;42.682;23.294;2023-04-05T01:53:08;0.80;;;0.80;;
11970;SDS011;6045;42.682;23.294;2023-04-05T01:55:35;2.10;;;0.90;;
11970;SDS011;6045;42.682;23.294;2023-04-05T01:58:02;1.07;;;0.83;;
11970;SDS011;6045;42.682;23.294;2023-04-05T02:00:29;2.80;;;1.30;;
11970;SDS011;6045;42.682;23.294;2023-04-05T02:02:58;2.13;;;0.80;;
11970;SDS011;6045;42.682;23.294;2023-04-05T02:05:24;2.70;;;1.87;;
11970;SDS011;6045;42.682;23.294;2023-04-05T02:07:51;0.80;;;0.80;;
11970;SDS011;6045;42.682;23.294;2023-04-05T02:10:18;1.67;;;0.93;;
11970;SDS011;6045;42.682;23.294;2023-04-05T02:12:45;1.07;;;1.07;;
11970;SDS011;6045;42.682;23.294;2023-04-05T02:15:12;0.80;;;0.80;;
11970;SDS011;6045;42.682;23.294;2023-04-05T02:17:39;1.73;;;1.53;;
11970;SDS011;6045;42.682;23.294;2023-04-05T02:20:11;0.90;;;0.90;;
11970;SDS011;6045;42.682;23.294;2023-04-05T02:22:39;1.03;;;0.90;;
11970;SDS011;6045;42.682;23.294;2023-04-05T02:25:09;1.67;;;1.53;;
11970;SDS011;6045;42.682;23.294;2023-04-05T02:27:36;1.30;;;1.20;;
11970;SDS011;6045;42.682;23.294;2023-04-05T02:30:03;0.87;;;0.87;;
11970;SDS011;6045;42.682;23.294;2023-04-05T02:32:31;2.13;;;1.27;;
11970;SDS011;6045;42.682;23.294;2023-04-05T02:34:58;1.40;;;0.70;;
11970;SDS011;6045;42.682;23.294;2023-04-05T02:37:26;1.67;;;1.33;;
11970;SDS011;6045;42.682;23.294;2023-04-05T02:39:53;0.73;;;0.73;;
11970;SDS011;6045;42.682;23.294;2023-04-05T02:42:20;2.43;;;1.33;;
11970;SDS011;6045;42.682;23.294;2023-04-05T02:44:47;2.83;;;0.70;;
11970;SDS011;6045;42.682;23.294;2023-04-05T02:47:14;2.67;;;2.43;;
11970;SDS011;6045;42.682;23.294;2023-04-05T02:49:45;0.87;;;0.60;;
11970;SDS011;6045;42.682;23.294;2023-04-05T02:52:12;0.83;;;0.73;;
11970;SDS011;6045;42.682;23.294;2023-04-05T02:54:40;2.33;;;0.80;;
11970;SDS011;6045;42.682;23.294;2023-04-05T02:57:07;1.50;;;1.37;;
11970;SDS011;6045;42.682;23.294;2023-04-05T02:59:35;1.70;;;1.33;;
11970;SDS011;6045;42.682;23.294;2023-04-05T03:02:02;1.57;;;1.27;;
11970;SDS011;6045;42.682;23.294;2023-04-05T03:04:29;1.70;;;1.13;;
11970;SDS011;6045;42.682;23.294;2023-04-05T03:06:58;3.27;;;1.60;;
11970;SDS011;6045;42.682;23.294;2023-04-05T03:09:26;1.30;;;0.90;;
11970;SDS011;6045;42.682;23.294;2023-04-05T03:11:58;1.73;;;1.63;;
11970;SDS011;6045;42.682;23.294;2023-04-05T03:14:25;1.57;;;1.47;;
11970;SDS011;6045;42.682;23.294;2023-04-05T03:16:52;0.93;;;0.93;;
11970;SDS011;6045;42.682;23.294;2023-04-05T03:19:19;0.93;;;0.93;;
11970;SDS011;6045;42.682;23.294;2023-04-05T03:21:46;1.03;;;1.03;;
11970;SDS011;6045;42.682;23.294;2023-04-05T03:24:13;0.20;;;0.20;;
11970;SDS011;6045;42.682;23.294;2023-04-05T03:26:41;3.23;;;1.33;;
11970;SDS011;6045;42.682;23.294;2023-04-05T03:29:10;1.70;;;1.10;;
11970;SDS011;6045;42.682;23.294;2023-04-05T03:31:36;1.73;;;1.10;;
11970;SDS011;6045;42.682;23.294;2023-04-05T03:34:04;3.33;;;1.67;;
11970;SDS011;6045;42.682;23.294;2023-04-05T03:36:30;1.03;;;1.03;;
11970;SDS011;6045;42.682;23.294;2023-04-05T03:39:06;2.23;;;1.47;;
11970;SDS011;6045;42.682;23.294;2023-04-05T03:41:33;2.03;;;1.40;;
11970;SDS011;6045;42.682;23.294;2023-04-05T03:44:00;5.03;;;2.70;;
11970;SDS011;6045;42.682;23.294;2023-04-05T03:46:28;1.67;;;1.23;;
11970;SDS011;6045;42.682;23.294;2023-04-05T03:48:55;1.57;;;1.47;;
11970;SDS011;6045;42.682;23.294;2023-04-05T03:51:22;1.27;;;1.17;;
11970;SDS011;6045;42.682;23.294;2023-04-05T03:53:49;1.13;;;1.10;;
11970;SDS011;6045;42.682;23.294;2023-04-05T03:56:16;1.43;;;1.20;;
11970;SDS011;6045;42.682;23.294;2023-04-05T03:58:43;0.70;;;0.70;;
11970;SDS011;6045;42.682;23.294;2023-04-05T04:01:10;3.13;;;1.60;;
11970;SDS011;6045;42.682;23.294;2023-04-05T04:03:38;4.23;;;1.10;;
11970;SDS011;6045;42.682;23.294;2023-04-05T04:06:06;2.30;;;1.90;;
11970;SDS011;6045;42.682;23.294;2023-04-05T04:08:33;2.27;;;1.93;;
11970;SDS011;6045;42.682;23.294;2023-04-05T04:11:00;2.53;;;2.33;;
11970;SDS011;6045;42.682;23.294;2023-04-05T04:13:26;1.47;;;1.20;;
11970;SDS011;6045;42.682;23.294;2023-04-05T04:15:53;2.27;;;2.07;;
11970;SDS011;6045;42.682;23.294;2023-04-05T04:18:20;2.10;;;1.93;;
11970;SDS011;6045;42.682;23.294;2023-04-05T04:20:48;2.80;;;1.70;;
11970;SDS011;6045;42.682;23.294;2023-04-05T04:23:16;1.47;;;1.37;;
11970;SDS011;6045;42.682;23.294;2023-04-05T04:25:43;1.53;;;1.43;;
11970;SDS011;6045;42.682;23.294;2023-04-05T04:28:10;1.30;;;0.93;;
11970;SDS011;6045;42.682;23.294;2023-04-05T04:30:37;1.43;;;1.33;;
11970;SDS011;6045;42.682;23.294;2023-04-05T04:33:07;0.77;;;0.77;;
11970;SDS011;6045;42.682;23.294;2023-04-05T04:35:34;1.73;;;1.17;;
11970;SDS011;6045;42.682;23.294;2023-04-05T04:38:04;3.33;;;2.27;;
11970;SDS011;6045;42.682;23.294;2023-04-05T04:40:32;3.97;;;1.90;;
11970;SDS011;6045;42.682;23.294;2023-04-05T04:43:02;2.20;;;1.20;;
11970;SDS011;6045;42.682;23.294;2023-04-05T04:45:29;2.83;;;1.63;;
11970;SDS011;6045;42.682;23.294;2023-04-05T04:47:58;1.30;;;1.27;;
11970;SDS011;6045;42.682;23.294;2023-04-05T04:50:29;3.10;;;1.83;;
11970;SDS011;6045;42.682;23.294;2023-04-05T04:52:57;1.60;;;1.50;;
11970;SDS011;6045;42.682;23.294;2023-04-05T04:55:26;1.13;;;1.03;;
11970;SDS011;6045;42.682;23.294;2023-04-05T04:57:53;2.90;;;1.60;;
11970;SDS011;6045;42.682;23.294;2023-04-05T05:00:21;1.20;;;1.10;;
11970;SDS011;6045;42.682;23.294;2023-04-05T05:02:49;0.37;;;0.33;;
11970;SDS011;6045;42.682;23.294;2023-04-05T05:05:16;0.80;;;0.70;;
11970;SDS011;6045;42.682;23.294;2023-04-05T05:07:46;0.83;;;0.83;;
11970;SDS011;6045;42.682;23.294;2023-04-05T05:10:14;0.90;;;0.90;;
11970;SDS011;6045;42.682;23.294;2023-04-05T05:12:42;0.67;;;0.67;;
11970;SDS011;6045;42.682;23.294;2023-04-05T05:15:09;1.07;;;1.07;;
11970;SDS011;6045;42.682;23.294;2023-04-05T05:17:37;0.63;;;0.63;;
11970;SDS011;6045;42.682;23.294;2023-04-05T05:20:04;0.63;;;0.57;;
11970;SDS011;6045;42.682;23.294;2023-04-05T05:22:34;0.83;;;0.83;;
11970;SDS011;6045;42.682;23.294;2023-04-05T05:25:01;1.23;;;1.13;;
11970;SDS011;6045;42.682;23.294;2023-04-05T05:27:28;3.43;;;1.10;;
11970;SDS011;6045;42.682;23.294;2023-04-05T05:29:56;1.03;;;1.03;;
11970;SDS011;6045;42.682;23.294;2023-04-05T05:32:23;2.13;;;1.07;;
11970;SDS011;6045;42.682;23.294;2023-04-05T05:34:50;0.83;;;0.60;;
11970;SDS011;6045;42.682;23.294;2023-04-05T05:37:16;1.23;;;0.93;;
11970;SDS011;6045;42.682;23.294;2023-04-05T05:39:43;1.47;;;0.67;;
11970;SDS011;6045;42.682;23.294;2023-04-05T05:42:10;1.90;;;0.50;;
11970;SDS011;6045;42.682;23.294;2023-04-05T05:44:37;1.53;;;1.10;;
11970;SDS011;6045;42.682;23.294;2023-04-05T05:47:05;0.70;;;0.70;;
11970;SDS011;6045;42.682;23.294;2023-04-05T05:49:32;1.57;;;1.27;;
11970;SDS011;6045;42.682;23.294;2023-04-05T05:51:59;0.77;;;0.47;;
11970;SDS011;6045;42.682;23.294;2023-04-05T05:54:26;1.00;;;1.00;;
11970;SDS011;6045;42.682;23.294;2023-04-05T05:56:52;1.10;;;0.93;;
11970;SDS011;6045;42.682;23.294;2023-04-05T05:59:19;1.30;;;1.20;;
11970;SDS011;6045;42.682;23.294;2023-04-05T06:01:46;1.80;;;1.63;;
11970;SDS011;6045;42.682;23.294;2023-04-05T06:04:17;1.23;;;1.13;;
11970;SDS011;6045;42.682;23.294;2023-04-05T06:06:44;1.90;;;1.73;;
11970;SDS011;6045;42.682;23.294;2023-04-05T06:09:12;1.07;;;0.90;;
11970;SDS011;6045;42.682;23.294;2023-04-05T06:11:58;0.17;;;0.17;;
11970;SDS011;6045;42.682;23.294;2023-04-05T06:14:28;2.37;;;0.90;;
11970;SDS011;6045;42.682;23.294;2023-04-05T06:16:58;0.93;;;0.93;;
11970;SDS011;6045;42.682;23.294;2023-04-05T06:19:26;1.03;;;0.60;;
11970;SDS011;6045;42.682;23.294;2023-04-05T06:21:53;1.57;;;0.50;;
11970;SDS011;6045;42.682;23.294;2023-04-05T06:24:20;0.77;;;0.77;;
11970;SDS011;6045;42.682;23.294;2023-04-05T06:26:48;1.23;;;0.93;;
11970;SDS011;6045;42.682;23.294;2023-04-05T06:29:18;2.00;;;1.20;;
11970;SDS011;6045;42.682;23.294;2023-04-05T06:31:55;1.23;;;1.17;;
11970;SDS011;6045;42.682;23.294;2023-04-05T06:34:22;1.13;;;1.03;;
11970;SDS011;6045;42.682;23.294;2023-04-05T06:36:50;2.40;;;1.37;;
11970;SDS011;6045;42.682;23.294;2023-04-05T06:39:21;1.17;;;1.10;;
11970;SDS011;6045;42.682;23.294;2023-04-05T06:41:48;0.57;;;0.57;;
11970;SDS011;6045;42.682;23.294;2023-04-05T06:44:15;1.70;;;1.40;;
11970;SDS011;6045;42.682;23.294;2023-04-05T06:46:42;1.93;;;1.23;;
11970;SDS011;6045;42.682;23.294;2023-04-05T06:49:09;0.83;;;0.83;;
11970;SDS011;6045;42.682;23.294;2023-04-05T06:51:36;0.93;;;0.90;;
11970;SDS011;6045;42.682;23.294;2023-04-05T06:54:04;0.80;;;0.80;;
11970;SDS011;6045;42.682;23.294;2023-04-05T06:56:34;2.00;;;1.00;;
11970;SDS011;6045;42.682;23.294;2023-04-05T06:59:03;0.80;;;0.80;;
11970;SDS011;6045;42.682;23.294;2023-04-05T07:01:30;0.83;;;0.60;;
11970;SDS011;6045;42.682;23.294;2023-04-05T07:03:57;1.30;;;0.97;;
11970;SDS011;6045;42.682;23.294;2023-04-05T07:06:24;0.60;;;0.60;;
11970;SDS011;6045;42.682;23.294;2023-04-05T07:08:52;1.20;;;0.93;;
11970;SDS011;6045;42.682;23.294;2023-04-05T07:11:21;0.97;;;0.37;;
11970;SDS011;6045;42.682;23.294;2023-04-05T07:13:47;1.63;;;1.00;;
11970;SDS011;6045;42.682;23.294;2023-04-05T07:16:14;1.07;;;0.77;;
11970;SDS011;6045;42.682;23.294;2023-04-05T07:18:47;0.80;;;0.80;;
11970;SDS011;6045;42.682;23.294;2023-04-05T07:21:14;1.57;;;1.07;;
11970;SDS011;6045;42.682;23.294;2023-04-05T07:23:41;0.73;;;0.50;;
11970;SDS011;6045;42.682;23.294;2023-04-05T07:26:08;0.90;;;0.90;;
11970;SDS011;6045;42.682;23.294;2023-04-05T07:28:38;0.43;;;0.43;;
11970;SDS011;6045;42.682;23.294;2023-04-05T07:31:05;0.67;;;0.60;;
11970;SDS011;6045;42.682;23.294;2023-04-05T07:33:33;1.70;;;0.87;;
11970;SDS011;6045;42.682;23.294;2023-04-05T07:36:00;2.97;;;1.30;;
11970;SDS011;6045;42.682;23.294;2023-04-05T07:38:27;2.10;;;0.87;;
11970;SDS011;6045;42.682;23.294;2023-04-05T07:40:55;1.47;;;0.93;;
11970;SDS011;6045;42.682;23.294;2023-04-05T07:43:22;2.03;;;1.83;;
11970;SDS011;6045;42.682;23.294;2023-04-05T07:45:59;1.53;;;0.80;;
11970;SDS011;6045;42.682;23.294;2023-04-05T07:48:27;0.70;;;0.70;;
11970;SDS011;6045;42.682;23.294;2023-04-05T07:50:54;1.63;;;1.53;;
11970;SDS011;6045;42.682;23.294;2023-04-05T07:53:21;0.73;;;0.60;;
11970;SDS011;6045;42.682;23.294;2023-04-05T07:55:48;1.23;;;0.70;;
11970;SDS011;6045;42.682;23.294;2023-04-05T07:58:17;0.60;;;0.60;;
11970;SDS011;6045;42.682;23.294;2023-04-05T08:00:44;0.97;;;0.97;;
11970;SDS011;6045;42.682;23.294;2023-04-05T08:03:12;0.40;;;0.40;;
11970;SDS011;6045;42.682;23.294;2023-04-05T08:05:39;0.73;;;0.73;;
11970;SDS011;6045;42.682;23.294;2023-04-05T08:08:06;0.80;;;0.63;;
11970;SDS011;6045;42.682;23.294;2023-04-05T08:10:37;0.47;;;0.47;;
11970;SDS011;6045;42.682;23.294;2023-04-05T08:13:04;0.67;;;0.67;;
11970;SDS011;6045;42.682;23.294;2023-04-05T08:15:31;0.63;;;0.63;;
11970;SDS011;6045;42.682;23.294;2023-04-05T08:17:58;1.23;;;1.07;;
11970;SDS011;6045;42.682;23.294;2023-04-05T08:20:27;0.23;;;0.23;;
11970;SDS011;6045;42.682;23.294;2023-04-05T08:22:53;1.57;;;1.23;;
11970;SDS011;6045;42.682;23.294;2023-04-05T08:25:20;1.30;;;0.77;;
11970;SDS011;6045;42.682;23.294;2023-04-05T08:27:47;3.93;;;0.50;;
11970;SDS011;6045;42.682;23.294;2023-04-05T08:30:14;0.30;;;0.30;;
11970;SDS011;6045;42.682;23.294;2023-04-05T08:32:44;3.27;;;1.20;;
11970;SDS011;6045;42.682;23.294;2023-04-05T08:35:11;0.63;;;0.50;;
11970;SDS011;6045;42.682;23.294;2023-04-05T08:37:42;4.07;;;1.60;;
11970;SDS011;6045;42.682;23.294;2023-04-05T08:40:11;0.87;;;0.87;;
11970;SDS011;6045;42.682;23.294;2023-04-05T08:42:41;0.50;;;0.47;;
11970;SDS011;6045;42.682;23.294;2023-04-05T08:45:17;1.17;;;0.70;;
11970;SDS011;6045;42.682;23.294;2023-04-05T08:47:48;0.67;;;0.50;;
11970;SDS011;6045;42.682;23.294;2023-04-05T08:50:17;0.33;;;0.33;;
11970;SDS011;6045;42.682;23.294;2023-04-05T08:52:46;0.70;;;0.70;;
11970;SDS011;6045;42.682;23.294;2023-04-05T08:55:14;1.20;;;1.10;;
11970;SDS011;6045;42.682;23.294;2023-04-05T08:57:42;0.80;;;0.80;;
11970;SDS011;6045;42.682;23.294;2023-04-05T09:00:14;1.17;;;1.03;;
11970;SDS011;6045;42.682;23.294;2023-04-05T09:02:43;0.73;;;0.73;;
11970;SDS011;6045;42.682;23.294;2023-04-05T09:05:13;0.53;;;0.53;;
11970;SDS011;6045;42.682;23.294;2023-04-05T09:07:42;0.67;;;0.67;;
11970;SDS011;6045;42.682;23.294;2023-04-05T09:10:13;1.30;;;1.20;;
11970;SDS011;6045;42.682;23.294;2023-04-05T09:12:40;1.10;;;1.10;;
11970;SDS011;6045;42.682;23.294;2023-04-05T09:15:08;0.73;;;0.67;;
11970;SDS011;6045;42.682;23.294;2023-04-05T09:17:35;1.60;;;1.40;;
11970;SDS011;6045;42.682;23.294;2023-04-05T09:20:04;1.50;;;1.40;;
11970;SDS011;6045;42.682;23.294;2023-04-05T09:22:40;1.43;;;1.30;;
11970;SDS011;6045;42.682;23.294;2023-04-05T09:25:08;2.03;;;1.50;;
11970;SDS011;6045;42.682;23.294;2023-04-05T09:27:36;2.87;;;1.43;;
11970;SDS011;6045;42.682;23.294;2023-04-05T09:30:20;1.20;;;1.10;;
11970;SDS011;6045;42.682;23.294;2023-04-05T09:32:49;1.97;;;1.87;;
11970;SDS011;6045;42.682;23.294;2023-04-05T09:35:17;1.00;;;0.90;;
11970;SDS011;6045;42.682;23.294;2023-04-05T09:37:49;1.47;;;1.37;;
11970;SDS011;6045;42.682;23.294;2023-04-05T09:40:17;1.77;;;0.90;;
11970;SDS011;6045;42.682;23.294;2023-04-05T09:42:46;1.23;;;1.10;;
11970;SDS011;6045;42.682;23.294;2023-04-05T09:45:13;0.50;;;0.50;;
11970;SDS011;6045;42.682;23.294;2023-04-05T09:47:50;2.07;;;1.30;;
11970;SDS011;6045;42.682;23.294;2023-04-05T09:50:19;1.63;;;1.40;;
11970;SDS011;6045;42.682;23.294;2023-04-05T09:52:46;1.07;;;1.00;;
11970;SDS011;6045;42.682;23.294;2023-04-05T09:55:13;1.80;;;1.30;;
11970;SDS011;6045;42.682;23.294;2023-04-05T09:57:53;1.50;;;1.17;;
11970;SDS011;6045;42.682;23.294;2023-04-05T10:00:20;1.07;;;1.07;;
11970;SDS011;6045;42.682;23.294;2023-04-05T10:02:51;1.73;;;1.63;;
11970;SDS011;6045;42.682;23.294;2023-04-05T10:05:19;1.20;;;1.10;;
11970;SDS011;6045;42.682;23.294;2023-04-05T10:07:49;1.50;;;1.10;;
11970;SDS011;6045;42.682;23.294;2023-04-05T10:10:16;1.73;;;1.63;;
11970;SDS011;6045;42.682;23.294;2023-04-05T10:12:43;1.10;;;0.90;;
11970;SDS011;6045;42.682;23.294;2023-04-05T10:15:14;2.10;;;1.50;;
11970;SDS011;6045;42.682;23.294;2023-04-05T10:17:45;1.47;;;1.37;;
11970;SDS011;6045;42.682;23.294;2023-04-05T10:20:17;1.40;;;1.30;;
11970;SDS011;6045;42.682;23.294;2023-04-05T10:25:40;1.77;;;1.67;;
11970;SDS011;6045;42.682;23.294;2023-04-05T10:28:14;2.33;;;2.13;;
11970;SDS011;6045;42.682;23.294;2023-04-05T10:30:50;1.37;;;1.27;;
11970;SDS011;6045;42.682;23.294;2023-04-05T10:33:20;1.37;;;1.10;;
11970;SDS011;6045;42.682;23.294;2023-04-05T10:35:58;1.10;;;1.00;;
11970;SDS011;6045;42.682;23.294;2023-04-05T10:38:35;1.07;;;0.97;;
11970;SDS011;6045;42.682;23.294;2023-04-05T10:41:14;2.30;;;1.47;;
11970;SDS011;6045;42.682;23.294;2023-04-05T10:43:41;1.40;;;1.30;;
11970;SDS011;6045;42.682;23.294;2023-04-05T10:46:12;1.60;;;1.50;;
11970;SDS011;6045;42.682;23.294;2023-04-05T10:48:47;2.23;;;2.03;;
11970;SDS011;6045;42.682;23.294;2023-04-05T10:51:19;2.17;;;1.40;;
11970;SDS011;6045;42.682;23.294;2023-04-05T10:53:50;3.07;;;1.93;;
11970;SDS011;6045;42.682;23.294;2023-04-05T10:56:17;2.70;;;1.70;;
11970;SDS011;6045;42.682;23.294;2023-04-05T10:58:47;1.73;;;1.53;;
11970;SDS011;6045;42.682;23.294;2023-04-05T11:01:16;0.93;;;0.83;;
11970;SDS011;6045;42.682;23.294;2023-04-05T11:03:46;2.37;;;1.53;;
11970;SDS011;6045;42.682;23.294;2023-04-05T11:06:17;1.37;;;1.27;;
11970;SDS011;6045;42.682;23.294;2023-04-05T11:08:46;1.43;;;1.33;;
11970;SDS011;6045;42.682;23.294;2023-04-05T11:11:15;1.00;;;0.90;;
11970;SDS011;6045;42.682;23.294;2023-04-05T11:13:46;1.40;;;1.30;;
11970;SDS011;6045;42.682;23.294;2023-04-05T11:16:14;2.67;;;1.67;;
11970;SDS011;6045;42.682;23.294;2023-04-05T11:18:44;2.23;;;2.00;;
11970;SDS011;6045;42.682;23.294;2023-04-05T11:21:18;2.53;;;1.17;;
11970;SDS011;6045;42.682;23.294;2023-04-05T11:24:00;2.07;;;1.97;;
11970;SDS011;6045;42.682;23.294;2023-04-05T11:26:30;1.20;;;1.17;;
11970;SDS011;6045;42.682;23.294;2023-04-05T11:28:59;2.37;;;1.70;;
11970;SDS011;6045;42.682;23.294;2023-04-05T11:31:27;2.60;;;1.53;;
11970;SDS011;6045;42.682;23.294;2023-04-05T11:33:55;1.27;;;1.13;;
11970;SDS011;6045;42.682;23.294;2023-04-05T11:36:37;2.10;;;1.90;;
11970;SDS011;6045;42.682;23.294;2023-04-05T11:39:26;2.80;;;1.80;;
11970;SDS011;6045;42.682;23.294;2023-04-05T11:41:58;1.83;;;1.50;;
11970;SDS011;6045;42.682;23.294;2023-04-05T11:44:26;1.77;;;1.53;;
11970;SDS011;6045;42.682;23.294;2023-04-05T11:46:55;2.70;;;1.70;;
11970;SDS011;6045;42.682;23.294;2023-04-05T11:49:23;1.47;;;1.37;;
11970;SDS011;6045;42.682;23.294;2023-04-05T11:51:51;2.30;;;1.63;;
11970;SDS011;6045;42.682;23.294;2023-04-05T11:54:28;2.30;;;2.00;;
11970;SDS011;6045;42.682;23.294;2023-04-05T11:56:55;2.63;;;2.07;;
11970;SDS011;6045;42.682;23.294;2023-04-05T11:59:29;2.20;;;2.00;;
11970;SDS011;6045;42.682;23.294;2023-04-05T12:01:57;2.47;;;1.60;;
11970;SDS011;6045;42.682;23.294;2023-04-05T12:04:26;1.80;;;1.70;;
11970;SDS011;6045;42.682;23.294;2023-04-05T12:07:12;2.53;;;2.03;;
11970;SDS011;6045;42.682;23.294;2023-04-05T12:09:57;2.30;;;1.57;;
11970;SDS011;6045;42.682;23.294;2023-04-05T12:12:31;2.50;;;1.97;;
11970;SDS011;6045;42.682;23.294;2023-04-05T12:14:59;2.63;;;1.83;;
11970;SDS011;6045;42.682;23.294;2023-04-05T12:17:43;2.73;;;1.80;;
11970;SDS011;6045;42.682;23.294;2023-04-05T12:20:13;3.53;;;2.40;;
11970;SDS011;6045;42.682;23.294;2023-04-05T12:22:44;2.57;;;1.97;;
11970;SDS011;6045;42.682;23.294;2023-04-05T12:25:13;2.50;;;2.30;;
11970;SDS011;6045;42.682;23.294;2023-04-05T12:27:40;3.03;;;2.50;;
11970;SDS011;6045;42.682;23.294;2023-04-05T12:30:08;2.90;;;1.87;;
11970;SDS011;6045;42.682;23.294;2023-04-05T12:32:45;4.23;;;2.00;;
11970;SDS011;6045;42.682;23.294;2023-04-05T12:35:16;2.73;;;2.43;;
11970;SDS011;6045;42.682;23.294;2023-04-05T12:37:44;11.53;;;6.07;;
11970;SDS011;6045;42.682;23.294;2023-04-05T12:40:11;6.37;;;2.90;;
11970;SDS011;6045;42.682;23.294;2023-04-05T12:42:39;2.03;;;1.83;;
11970;SDS011;6045;42.682;23.294;2023-04-05T12:45:11;2.83;;;2.50;;
11970;SDS011;6045;42.682;23.294;2023-04-05T12:47:48;3.47;;;2.77;;
11970;SDS011;6045;42.682;23.294;2023-04-05T12:50:18;2.63;;;2.33;;
11970;SDS011;6045;42.682;23.294;2023-04-05T12:52:52;3.77;;;2.33;;
11970;SDS011;6045;42.682;23.294;2023-04-05T12:55:23;3.10;;;1.93;;
11970;SDS011;6045;42.682;23.294;2023-04-05T12:57:51;3.40;;;1.97;;
11970;SDS011;6045;42.682;23.294;2023-04-05T13:00:18;4.20;;;2.83;;
11970;SDS011;6045;42.682;23.294;2023-04-05T13:02:50;2.67;;;1.80;;
11970;SDS011;6045;42.682;23.294;2023-04-05T13:05:22;3.10;;;2.43;;
11970;SDS011;6045;42.682;23.294;2023-04-05T13:07:50;2.27;;;2.07;;
11970;SDS011;6045;42.682;23.294;2023-04-05T13:10:18;3.03;;;2.57;;
11970;SDS011;6045;42.682;23.294;2023-04-05T13:12:45;5.33;;;2.23;;
11970;SDS011;6045;42.682;23.294;2023-04-05T13:15:12;2.23;;;1.93;;
11970;SDS011;6045;42.682;23.294;2023-04-05T13:17:39;2.27;;;2.07;;
11970;SDS011;6045;42.682;23.294;2023-04-05T13:20:07;1.67;;;1.50;;
11970;SDS011;6045;42.682;23.294;2023-04-05T13:22:35;3.50;;;2.10;;
11970;SDS011;6045;42.682;23.294;2023-04-05T13:25:02;2.47;;;1.67;;
11970;SDS011;6045;42.682;23.294;2023-04-05T13:27:29;6.10;;;3.07;;
11970;SDS011;6045;42.682;23.294;2023-04-05T13:29:56;2.70;;;1.83;;
11970;SDS011;6045;42.682;23.294;2023-04-05T13:32:23;3.93;;;2.27;;
11970;SDS011;6045;42.682;23.294;2023-04-05T13:34:50;2.60;;;2.03;;
11970;SDS011;6045;42.682;23.294;2023-04-05T13:37:16;2.83;;;2.43;;
11970;SDS011;6045;42.682;23.294;2023-04-05T13:39:44;2.40;;;2.20;;
11970;SDS011;6045;42.682;23.294;2023-04-05T13:42:11;2.23;;;2.03;;
11970;SDS011;6045;42.682;23.294;2023-04-05T13:44:38;2.20;;;1.90;;
11970;SDS011;6045;42.682;23.294;2023-04-05T13:47:05;3.03;;;1.83;;
11970;SDS011;6045;42.682;23.294;2023-04-05T13:49:32;2.83;;;2.63;;
11970;SDS011;6045;42.682;23.294;2023-04-05T13:51:59;3.13;;;2.13;;
11970;SDS011;6045;42.682;23.294;2023-04-05T13:54:26;3.57;;;2.63;;
11970;SDS011;6045;42.682;23.294;2023-04-05T13:56:54;2.27;;;2.07;;
11970;SDS011;6045;42.682;23.294;2023-04-05T13:59:23;5.17;;;2.40;;
11970;SDS011;6045;42.682;23.294;2023-04-05T14:01:50;3.80;;;2.60;;
11970;SDS011;6045;42.682;23.294;2023-04-05T14:04:17;2.47;;;2.10;;
11970;SDS011;6045;42.682;23.294;2023-04-05T14:06:44;3.67;;;2.40;;
11970;SDS011;6045;42.682;23.294;2023-04-05T14:09:11;2.63;;;1.83;;
11970;SDS011;6045;42.682;23.294;2023-04-05T14:11:38;1.30;;;1.20;;
11970;SDS011;6045;42.682;23.294;2023-04-05T14:14:06;4.53;;;2.57;;
11970;SDS011;6045;42.682;23.294;2023-04-05T14:16:33;2.93;;;2.20;;
11970;SDS011;6045;42.682;23.294;2023-04-05T14:19:01;2.90;;;2.33;;
11970;SDS011;6045;42.682;23.294;2023-04-05T14:21:29;2.93;;;1.93;;
11970;SDS011;6045;42.682;23.294;2023-04-05T14:23:57;3.73;;;2.07;;
11970;SDS011;6045;42.682;23.294;2023-04-05T14:26:24;2.80;;;2.30;;
11970;SDS011;6045;42.682;23.294;2023-04-05T14:28:51;3.70;;;2.23;;
11970;SDS011;6045;42.682;23.294;2023-04-05T14:31:19;2.93;;;1.97;;
11970;SDS011;6045;42.682;23.294;2023-04-05T14:33:49;1.90;;;1.60;;
11970;SDS011;6045;42.682;23.294;2023-04-05T14:36:16;3.47;;;2.53;;
11970;SDS011;6045;42.682;23.294;2023-04-05T14:38:43;2.17;;;1.93;;
11970;SDS011;6045;42.682;23.294;2023-04-05T14:41:10;3.77;;;3.47;;
11970;SDS011;6045;42.682;23.294;2023-04-05T14:43:36;3.20;;;2.60;;
11970;SDS011;6045;42.682;23.294;2023-04-05T14:46:03;2.40;;;2.20;;
11970;SDS011;6045;42.682;23.294;2023-04-05T14:48:32;2.60;;;2.40;;
11970;SDS011;6045;42.682;23.294;2023-04-05T14:50:59;3.77;;;2.33;;
11970;SDS011;6045;42.682;23.294;2023-04-05T14:53:25;3.20;;;2.30;;
11970;SDS011;6045;42.682;23.294;2023-04-05T14:55:52;6.77;;;2.93;;
11970;SDS011;6045;42.682;23.294;2023-04-05T14:58:19;5.97;;;3.17;;
11970;SDS011;6045;42.682;23.294;2023-04-05T15:00:46;4.67;;;2.97;;
11970;SDS011;6045;42.682;23.294;2023-04-05T15:03:15;3.27;;;2.63;;
11970;SDS011;6045;42.682;23.294;2023-04-05T15:05:45;3.33;;;2.50;;